Time;durP1;ratioP1;P1;durP2;ratioP2;P2;SDS_P1;SDS_P2;PMS_P1;PMS_P2;Temp;Humidity;BMP_temperature;BMP_pressure;BME280_temperature;BME280_humidity;BME280_pressure;Samples;Min_cycle;Max_cycle;Signal;HPM_P1;HPM_P2
2021/03/19 00:01:42;;;;;;;23.27;16.42;;;3.30;99.90;;;4.21;89.91;100929.16;5014101;28;20033;-85
2021/03/19 00:04:09;;;;;;;21.88;15.63;;;3.20;99.90;;;4.11;90.22;100921.09;5002329;28;20099;-83
2021/03/19 00:06:36;;;;;;;24.98;16.60;;;3.20;99.90;;;4.11;90.54;100927.41;5000075;28;20022;-84
2021/03/19 00:09:07;;;;;;;25.42;16.45;;;3.10;99.90;;;4.06;91.10;100932.25;4998890;28;20030;-80
2021/03/19 00:11:35;;;;;;;29.65;17.35;;;3.10;99.90;;;4.07;90.57;100929.19;4997105;28;20064;-85
2021/03/19 00:14:05;;;;;;;28.02;16.70;;;3.10;99.90;;;4.11;90.54;100932.94;4998396;28;20034;-84
2021/03/19 00:16:34;;;;;;;26.48;16.45;;;3.10;99.90;;;4.01;90.95;100927.66;4997312;28;20524;-85
2021/03/19 00:19:02;;;;;;;26.65;17.83;;;3.10;99.90;;;4.03;90.80;100936.44;4997362;28;20029;-85
2021/03/19 00:21:29;;;;;;;26.38;16.73;;;3.10;99.90;;;4.08;90.26;100936.34;5002643;28;20022;-83
2021/03/19 00:23:55;;;;;;;30.95;17.90;;;3.10;99.90;;;4.12;90.38;100934.59;5014269;28;20034;-82
2021/03/19 00:26:22;;;;;;;27.30;18.38;;;3.10;99.90;;;4.07;90.06;100937.47;5016130;28;20100;-85
2021/03/19 00:28:50;;;;;;;28.42;18.65;;;3.10;99.90;;;4.02;90.77;100939.50;5012516;28;20560;-81
2021/03/19 00:31:17;;;;;;;27.00;18.15;;;3.10;99.90;;;4.00;90.39;100939.81;4996945;28;20092;-83
2021/03/19 00:33:43;;;;;;;32.65;20.05;;;3.10;99.90;;;3.97;90.47;100939.63;4995682;28;20113;-82
2021/03/19 00:36:09;;;;;;;29.27;19.75;;;3.00;99.90;;;3.89;90.68;100937.56;4996351;28;20490;-83
2021/03/19 00:38:35;;;;;;;30.75;18.10;;;2.90;99.90;;;3.77;90.99;100942.78;5011656;28;20038;-84
2021/03/19 00:41:02;;;;;;;31.17;19.13;;;2.90;99.90;;;3.78;91.14;100949.94;5015409;28;20096;-83
2021/03/19 00:43:28;;;;;;;30.67;18.67;;;2.80;99.90;;;3.69;91.04;100947.88;5016401;28;20034;-84
2021/03/19 00:45:54;;;;;;;31.85;19.00;;;2.80;99.90;;;3.65;91.08;100957.91;5016672;28;20350;-84
2021/03/19 00:48:20;;;;;;;31.13;19.98;;;2.80;99.90;;;3.58;91.51;100951.16;5016022;28;20496;-84
2021/03/19 00:50:46;;;;;;;29.08;19.85;;;2.70;99.90;;;3.48;91.50;100949.38;5018649;28;20029;-85
2021/03/19 00:53:13;;;;;;;32.70;19.65;;;2.60;99.90;;;3.46;91.82;100948.06;5017746;28;20049;-84
2021/03/19 00:55:39;;;;;;;29.40;19.58;;;2.60;99.90;;;3.49;91.95;100940.00;5001586;28;20030;-83
2021/03/19 00:58:05;;;;;;;34.33;20.13;;;2.60;99.90;;;3.30;92.34;100935.66;4995677;28;20668;-81
2021/03/19 01:00:37;;;;;;;28.02;20.85;;;2.50;99.90;;;3.32;92.56;100933.38;4996420;28;20033;-84
2021/03/19 01:03:04;;;;;;;34.95;21.20;;;2.50;99.90;;;3.23;92.21;100930.50;4996999;28;20026;-83
2021/03/19 01:05:40;;;;;;;30.02;18.65;;;2.50;99.90;;;3.29;91.94;100929.31;4996550;28;20045;-80
2021/03/19 01:08:09;;;;;;;37.13;20.35;;;2.40;99.90;;;3.18;92.03;100939.69;5008183;28;20489;-82
2021/03/19 01:10:41;;;;;;;38.35;21.58;;;2.30;99.90;;;3.16;92.49;100941.13;5017341;28;20117;-83
2021/03/19 01:13:09;;;;;;;30.35;19.40;;;2.30;99.90;;;3.16;91.88;100941.94;5015212;28;20072;-81
2021/03/19 01:15:36;;;;;;;31.58;20.48;;;2.30;99.90;;;3.12;92.84;100949.19;5014770;28;20022;-86
2021/03/19 01:18:07;;;;;;;31.35;21.52;;;2.30;99.90;;;3.19;92.44;100952.38;5014622;28;20026;-80
2021/03/19 01:20:37;;;;;;;34.17;20.67;;;2.30;99.90;;;3.16;92.17;100961.25;5016111;28;20041;-84
2021/03/19 01:23:04;;;;;;;29.77;20.13;;;2.20;99.90;;;3.12;92.36;100956.63;5014420;28;20121;-82
2021/03/19 01:25:29;;;;;;;33.42;20.63;;;2.20;99.90;;;3.08;92.36;100955.63;5014030;28;20312;-81
2021/03/19 01:27:56;;;;;;;33.80;20.88;;;2.20;99.90;;;3.14;92.08;100959.94;5013071;28;20025;-81
2021/03/19 01:30:32;;;;;;;34.17;21.63;;;2.20;99.90;;;2.93;92.59;100953.91;5011225;28;20393;-83
2021/03/19 01:32:58;;;;;;;37.13;21.75;;;2.10;99.90;;;3.02;92.04;100957.63;5011347;28;20026;-81
2021/03/19 01:35:31;;;;;;;33.60;21.13;;;2.10;99.90;;;2.97;92.66;100954.13;5010660;28;20105;-82
2021/03/19 01:37:58;;;;;;;34.67;19.98;;;2.10;99.90;;;2.93;92.70;100955.84;4994652;28;20026;-82
2021/03/19 01:40:32;;;;;;;33.60;20.35;;;2.00;99.90;;;2.87;92.50;100955.09;5011779;28;20030;-84
2021/03/19 01:43:20;;;;;;;35.40;20.25;;;2.00;99.90;;;2.84;92.63;100960.41;5012958;28;20026;-82
2021/03/19 01:46:41;;;;;;;31.50;21.42;;;1.90;99.90;;;2.78;92.49;100964.34;5014464;28;20520;-81
2021/03/19 01:50:22;;;;;;;33.25;21.08;;;1.90;99.90;;;2.83;92.70;100967.03;4994002;28;20117;-80
2021/03/19 01:54:03;;;;;;;32.03;20.90;;;1.90;99.90;;;2.77;92.96;100969.06;5005025;28;20010;-78
2021/03/19 01:57:44;;;;;;;33.45;21.77;;;1.80;99.90;;;2.74;93.27;100971.59;4995804;28;20556;-81
2021/03/19 02:01:25;;;;;;;35.83;21.92;;;1.80;99.90;;;2.69;92.87;100978.00;5011366;28;20034;-83
2021/03/19 02:05:06;;;;;;;33.65;21.92;;;1.80;99.90;;;2.67;93.16;100971.94;5014397;28;20037;-81
2021/03/19 02:08:48;;;;;;;31.10;20.75;;;1.80;99.90;;;2.69;93.40;100985.47;5000733;28;20033;-84
2021/03/19 02:12:29;;;;;;;34.25;20.70;;;1.80;99.90;;;2.67;93.11;100977.47;5013891;28;20030;-83
2021/03/19 02:16:10;;;;;;;37.55;21.08;;;1.80;99.90;;;2.62;93.13;100975.63;4996995;28;20689;-84
2021/03/19 02:19:51;;;;;;;32.40;21.25;;;1.70;99.90;;;2.59;93.25;100975.41;4993617;28;20169;-82
2021/03/19 02:23:32;;;;;;;37.50;21.35;;;1.70;99.90;;;2.65;93.21;100974.19;4994880;28;20031;-84
2021/03/19 02:27:13;;;;;;;36.90;21.08;;;1.70;99.90;;;2.74;93.41;100977.09;5001023;28;20033;-81
2021/03/19 02:30:54;;;;;;;33.80;21.50;;;1.80;99.90;;;2.83;93.19;100984.41;5014127;28;20099;-83
2021/03/19 02:33:20;;;;;;;34.58;20.60;;;1.90;99.90;;;2.94;92.55;100985.09;5014910;28;20501;-81
2021/03/19 02:35:59;;;;;;;33.03;20.65;;;2.00;99.90;;;3.00;91.48;101000.44;5015608;28;20026;-80
2021/03/19 02:38:27;;;;;;;31.67;20.92;;;2.00;99.90;;;2.86;91.89;100991.28;5014729;28;20037;-81
2021/03/19 02:40:55;;;;;;;33.45;21.80;;;2.00;99.90;;;2.94;92.10;101005.22;5008288;28;20026;-81
2021/03/19 02:43:24;;;;;;;32.42;19.50;;;2.00;99.90;;;2.95;91.56;100997.78;5013800;28;20027;-83
2021/03/19 02:45:50;;;;;;;27.83;19.70;;;2.00;99.90;;;2.98;91.34;100997.16;5015202;28;20080;-82
2021/03/19 02:48:20;;;;;;;33.58;19.90;;;2.00;99.90;;;2.94;91.34;101005.22;5014032;28;20017;-81
2021/03/19 02:50:46;;;;;;;32.35;19.17;;;2.00;99.90;;;2.92;90.71;101004.69;5013842;28;20028;-84
2021/03/19 02:53:28;;;;;;;28.25;18.70;;;2.00;99.90;;;2.87;91.21;101017.75;5018755;28;20049;-84
2021/03/19 02:55:57;;;;;;;28.15;18.85;;;2.00;99.90;;;2.91;90.91;101013.28;5018592;28;20036;-83
2021/03/19 02:58:25;;;;;;;29.30;18.98;;;2.00;99.90;;;2.95;90.22;101017.09;4997528;28;20052;-83
2021/03/19 03:00:52;;;;;;;30.20;18.15;;;2.00;99.90;;;2.98;90.58;101025.59;4998401;28;20080;-83
2021/03/19 03:03:20;;;;;;;29.67;17.40;;;2.00;99.90;;;2.93;90.60;101028.41;4998717;28;20050;-83
2021/03/19 03:05:47;;;;;;;27.13;17.92;;;2.10;99.90;;;3.00;90.34;101033.53;4998183;28;20037;-83
2021/03/19 03:08:19;;;;;;;29.08;18.40;;;2.00;99.90;;;2.92;90.69;101034.22;5010505;28;20033;-83
2021/03/19 03:10:51;;;;;;;31.40;18.30;;;2.10;99.90;;;2.94;90.87;101024.53;5018203;28;20053;-83
2021/03/19 03:13:18;;;;;;;30.58;18.45;;;2.10;99.90;;;2.93;90.92;101030.34;5016000;28;20029;-82
2021/03/19 03:15:46;;;;;;;26.08;17.08;;;2.00;99.90;;;2.93;90.38;101041.38;4998744;28;20037;-82
2021/03/19 03:18:13;;;;;;;30.50;19.38;;;2.00;99.90;;;2.95;90.50;101052.94;4998590;28;20029;-85
2021/03/19 03:20:53;;;;;;;35.72;18.42;;;2.00;99.90;;;2.97;89.77;101058.97;4999115;28;20135;-83
2021/03/19 03:23:25;;;;;;;32.17;19.02;;;2.00;99.90;;;2.95;90.22;101059.28;5000705;28;20081;-84
2021/03/19 03:25:53;;;;;;;32.00;19.13;;;2.00;99.90;;;2.78;90.16;101066.41;4998224;28;20489;-83
2021/03/19 03:28:24;;;;;;;33.72;18.42;;;2.00;99.90;;;2.84;89.64;101074.34;5000063;28;20030;-85
2021/03/19 03:30:58;;;;;;;30.85;18.35;;;2.00;99.90;;;2.78;89.53;101074.69;5004212;28;20034;-83
2021/03/19 03:33:25;;;;;;;35.88;19.52;;;1.90;99.90;;;2.74;89.58;101076.41;5002880;28;20042;-85
2021/03/19 03:35:52;;;;;;;29.27;17.77;;;1.80;99.90;;;2.61;89.97;101077.94;4998626;28;20038;-80
2021/03/19 03:38:25;;;;;;;31.48;18.88;;;1.80;99.90;;;2.41;90.38;101084.50;4997477;28;20030;-84
2021/03/19 03:41:06;;;;;;;36.50;20.05;;;1.70;99.90;;;2.32;90.81;101085.44;5009898;28;20033;-82
2021/03/19 03:43:35;;;;;;;34.75;19.55;;;1.60;99.90;;;2.37;90.84;101089.00;5000643;28;20120;-81
2021/03/19 03:46:06;;;;;;;33.55;19.05;;;1.50;99.90;;;2.35;90.37;101093.97;5015689;28;20026;-82
2021/03/19 03:48:34;;;;;;;32.78;19.20;;;1.50;99.90;;;2.33;90.74;101093.44;5008994;28;20653;-80
2021/03/19 03:51:06;;;;;;;32.40;18.40;;;1.50;99.90;;;2.25;90.57;101099.56;5000203;28;20030;-81
2021/03/19 03:53:34;;;;;;;34.03;18.50;;;1.40;99.90;;;2.19;90.91;101103.50;5011846;28;20031;-81
2021/03/19 03:56:01;;;;;;;35.20;18.75;;;1.30;99.90;;;2.18;90.95;101106.56;4996938;28;20454;-81
2021/03/19 03:58:27;;;;;;;32.13;19.13;;;1.30;99.90;;;2.04;91.25;101107.25;4997659;28;20042;-81
2021/03/19 04:00:53;;;;;;;35.55;19.42;;;1.20;99.90;;;1.88;91.97;101099.41;5012055;28;20027;-80
2021/03/19 04:03:19;;;;;;;33.58;18.25;;;1.10;99.90;;;1.93;91.65;101104.84;4994728;28;20108;-81
2021/03/19 04:05:48;;;;;;;37.70;20.10;;;1.10;99.90;;;1.93;91.91;101107.63;5004611;28;20105;-82
2021/03/19 04:08:27;;;;;;;37.05;18.73;;;1.10;99.90;;;1.89;91.83;101125.84;5008149;28;20033;-81
2021/03/19 04:10:59;;;;;;;32.08;19.60;;;1.00;99.90;;;1.84;92.08;101125.88;5005031;28;20030;-81
2021/03/19 04:13:29;;;;;;;32.75;19.58;;;1.00;99.90;;;1.90;91.40;101127.47;5006219;28;20342;-82
2021/03/19 04:15:57;;;;;;;32.50;17.98;;;1.00;99.90;;;1.83;91.49;101121.50;5017026;28;20026;-82
2021/03/19 04:18:25;;;;;;;33.75;18.65;;;0.90;99.90;;;1.75;91.78;101124.88;5018154;28;20022;-81
2021/03/19 04:20:58;;;;;;;29.13;17.17;;;0.90;99.90;;;1.67;92.04;101118.03;5016637;28;20030;-79
2021/03/19 04:23:30;;;;;;;35.17;18.23;;;0.80;99.90;;;1.65;91.91;101135.94;5003542;28;20101;-85
2021/03/19 04:25:57;;;;;;;32.10;18.70;;;0.80;99.90;;;1.64;91.91;101134.34;5013892;28;20037;-82
2021/03/19 04:28:33;;;;;;;31.13;17.10;;;0.80;99.90;;;1.56;91.53;101130.25;4998219;28;20093;-85
2021/03/19 04:31:00;;;;;;;31.92;17.88;;;0.70;99.90;;;1.54;91.94;101132.47;5003254;28;20276;-85
2021/03/19 04:33:28;;;;;;;28.65;16.83;;;0.70;99.90;;;1.49;91.95;101130.56;5018183;28;20033;-81
2021/03/19 04:36:31;;;;;;;27.67;16.95;;;0.70;99.90;;;1.47;91.69;101132.78;5018146;28;20044;-84
2021/03/19 04:39:06;;;;;;;36.40;18.27;;;0.70;99.90;;;1.53;91.80;101141.84;5016183;28;20032;-85
2021/03/19 04:41:32;;;;;;;;;;;0.70;99.90;;;1.56;91.65;101142.09;4998885;28;20053;-85
2021/03/19 04:44:02;;;;;;;31.45;16.38;;;0.70;99.90;;;1.59;91.68;101132.44;4998217;28;19910;-84
2021/03/19 04:46:28;;;;;;;27.73;17.17;;;0.70;99.90;;;1.65;91.51;101135.94;4999461;28;20094;-85
2021/03/19 04:48:54;;;;;;;29.73;16.50;;;0.80;99.90;;;1.71;91.34;101143.88;4999104;28;20054;-83
2021/03/19 04:51:21;;;;;;;26.00;14.65;;;0.80;99.90;;;1.75;91.21;101146.91;4998373;28;20041;-83
2021/03/19 04:53:47;;;;;;;30.63;16.05;;;0.90;99.90;;;1.75;91.30;101144.97;5001635;28;20022;-83
2021/03/19 04:56:13;;;;;;;33.70;16.73;;;0.90;99.90;;;1.76;90.72;101143.88;5012241;28;20033;-83
2021/03/19 04:58:40;;;;;;;29.10;16.30;;;0.90;99.90;;;1.76;90.18;101145.78;5009990;28;20040;-83
2021/03/19 05:01:10;;;;;;;22.17;13.75;;;0.90;99.90;;;1.89;89.27;101159.75;5018030;28;20030;-83
2021/03/19 05:03:36;;;;;;;22.38;13.25;;;1.00;99.90;;;1.93;88.67;101165.47;4999382;28;20034;-84
2021/03/19 05:06:03;;;;;;;26.17;13.43;;;1.00;99.90;;;1.85;89.00;101160.59;5013145;28;20037;-82
2021/03/19 05:08:29;;;;;;;26.15;15.00;;;1.00;99.90;;;1.84;88.37;101159.75;5011239;28;20038;-83
2021/03/19 05:10:54;;;;;;;20.08;12.30;;;1.00;99.90;;;1.86;87.67;101174.06;5015852;28;20351;-81
2021/03/19 05:13:23;;;;;;;21.45;13.77;;;1.00;99.90;;;1.75;88.05;101169.75;5017670;28;20034;-83
2021/03/19 05:15:49;;;;;;;20.13;13.65;;;1.00;99.90;;;1.82;88.03;101181.28;5017461;28;20034;-83
2021/03/19 05:18:15;;;;;;;25.05;12.82;;;1.00;99.90;;;1.71;87.91;101181.63;5018106;28;20076;-83
2021/03/19 05:20:41;;;;;;;19.67;12.90;;;1.00;99.90;;;1.76;88.21;101187.94;5012888;28;20022;-84
2021/03/19 05:23:32;;;;;;;25.77;13.25;;;0.90;99.90;;;1.75;87.90;101189.03;5007613;28;20053;-83
2021/03/19 05:25:59;;;;;;;20.63;11.98;;;0.90;99.90;;;1.66;87.94;101187.16;5034862;28;20018;-80
2021/03/19 05:28:29;;;;;;;24.60;12.88;;;0.80;99.90;;;1.51;88.21;101185.31;5036572;28;20022;-80
2021/03/19 05:30:55;;;;;;;22.50;12.88;;;0.70;99.90;;;1.55;87.72;101194.66;5035897;28;20057;-80
2021/03/19 05:33:26;;;;;;;21.58;12.43;;;0.70;99.90;;;1.46;87.61;101190.88;5035733;28;20038;-79
2021/03/19 05:35:56;;;;;;;19.92;12.57;;;0.60;99.90;;;1.35;87.95;101190.09;5035393;28;20026;-79
2021/03/19 05:38:23;;;;;;;23.75;14.10;;;0.50;99.90;;;1.22;88.54;101189.91;5011318;28;20053;-81
2021/03/19 05:40:57;;;;;;;23.65;13.32;;;0.50;99.90;;;1.13;89.18;101202.59;4994950;28;20045;-83
2021/03/19 05:43:30;;;;;;;23.13;14.27;;;0.30;99.90;;;1.03;89.02;101206.22;4996265;28;20041;-81
2021/03/19 05:46:01;;;;;;;21.58;13.98;;;0.30;99.90;;;1.02;89.40;101208.16;5002324;28;20036;-84
2021/03/19 05:48:45;;;;;;;23.27;13.00;;;0.20;99.90;;;1.02;89.14;101208.16;5016632;28;20302;-84
2021/03/19 05:51:37;;;;;;;21.85;13.00;;;0.20;99.90;;;1.19;88.50;101204.25;5015333;28;20033;-83
2021/03/19 05:54:33;;;;;;;20.23;12.88;;;0.30;99.90;;;1.23;88.25;101208.06;5017516;28;20049;-83
2021/03/19 05:57:08;;;;;;;23.23;13.60;;;0.30;99.90;;;1.21;87.86;101207.53;5016995;28;20405;-82
2021/03/19 05:59:36;;;;;;;23.70;13.52;;;0.30;99.90;;;1.22;87.76;101212.72;5017925;28;20470;-82
2021/03/19 06:02:19;;;;;;;18.15;11.15;;;0.30;99.90;;;1.19;87.96;101212.50;5013870;28;20053;-82
2021/03/19 06:05:08;;;;;;;24.83;12.30;;;0.30;99.90;;;1.22;87.55;101211.94;4997754;28;20061;-80
2021/03/19 06:08:01;;;;;;;21.65;13.35;;;0.30;99.90;;;1.24;87.79;101218.81;5003118;28;20081;-82
2021/03/19 06:10:42;;;;;;;19.38;11.43;;;0.40;99.90;;;1.32;87.30;101223.69;4997397;28;20034;-82
2021/03/19 06:13:44;;;;;;;18.70;11.80;;;0.40;99.90;;;1.45;86.75;101227.75;4996655;28;20062;-82
2021/03/19 06:16:49;;;;;;;20.23;11.52;;;0.50;99.90;;;1.53;85.74;101236.28;4998063;28;20477;-81
2021/03/19 06:19:34;;;;;;;17.80;11.50;;;0.60;99.90;;;1.54;85.77;101240.63;5002159;28;20105;-82
2021/03/19 06:22:36;;;;;;;18.13;11.18;;;0.70;99.90;;;1.63;85.05;101240.88;5003692;28;20033;-84
2021/03/19 06:25:23;;;;;;;17.17;11.02;;;0.70;99.90;;;1.61;85.24;101245.03;5014960;28;20091;-81
2021/03/19 06:28:13;;;;;;;18.25;10.90;;;0.80;99.90;;;1.68;85.24;101245.53;5015097;28;20083;-86
2021/03/19 06:30:43;;;;;;;20.85;12.18;;;0.80;99.90;;;1.76;84.80;101253.19;5007188;28;20105;-85
2021/03/19 06:33:13;;;;;;;19.70;11.30;;;0.90;99.90;;;1.92;84.23;101247.31;5016688;28;20042;-86
2021/03/19 06:36:06;;;;;;;18.42;9.75;;;1.00;99.90;;;2.03;83.50;101246.13;5013823;28;20044;-82
2021/03/19 06:39:01;;;;;;;16.55;10.55;;;1.10;99.90;;;2.13;82.85;101243.28;5007625;28;20038;-84
2021/03/19 06:41:35;;;;;;;13.73;9.15;;;1.20;99.90;;;2.60;80.91;101250.84;5017609;28;20028;-83
2021/03/19 06:44:23;;;;;;;14.27;8.77;;;1.40;99.90;;;2.77;80.44;101257.88;5028231;28;20065;-85
2021/03/19 06:47:06;;;;;;;13.32;8.70;;;1.50;99.90;;;3.21;79.46;101252.16;5028049;28;20037;-85
2021/03/19 06:49:55;;;;;;;14.55;8.57;;;1.70;99.90;;;3.33;78.36;101253.38;5022323;28;20101;-83
2021/03/19 06:52:21;;;;;;;12.77;8.10;;;1.90;99.90;;;3.43;77.02;101253.25;5005759;28;20034;-85
2021/03/19 06:54:54;;;;;;;11.98;7.38;;;2.00;99.90;;;3.52;75.09;101245.94;5006084;28;20045;-85
2021/03/19 06:57:20;;;;;;;10.30;7.05;;;2.10;99.90;;;3.49;75.38;101265.03;5005851;28;20123;-84
2021/03/19 07:00:02;;;;;;;14.43;8.48;;;2.10;99.90;;;3.25;76.49;101264.22;5021352;28;20041;-85
2021/03/19 07:03:18;;;;;;;11.27;7.88;;;2.20;99.90;;;3.49;76.11;101265.03;5004303;28;20045;-84
2021/03/19 07:06:29;;;;;;;12.32;8.18;;;2.40;99.90;;;3.51;75.00;101271.06;5006386;28;20034;-84
2021/03/19 07:09:37;;;;;;;11.50;6.88;;;2.50;99.90;;;3.78;74.45;101270.44;5004370;28;20101;-82
2021/03/19 07:12:54;;;;;;;12.35;7.68;;;2.60;99.90;;;3.90;73.03;101276.34;5001148;28;20030;-86
2021/03/19 07:16:18;;;;;;;14.15;7.43;;;2.80;99.90;;;3.88;72.45;101282.19;4968895;28;20474;-82
2021/03/19 07:19:17;;;;;;;10.30;6.50;;;2.80;99.90;;;4.03;73.09;101290.25;4990613;28;20034;-84
2021/03/19 07:22:07;;;;;;;11.55;7.00;;;2.90;99.90;;;4.25;72.81;101297.94;5007759;28;20045;-84
2021/03/19 07:25:22;;;;;;;12.13;6.90;;;3.10;99.90;;;4.34;71.68;101300.81;5009976;28;20042;-87
2021/03/19 07:28:15;;;;;;;10.18;6.63;;;3.10;99.90;;;4.37;71.48;101309.34;5007055;28;20116;-84
2021/03/19 07:31:44;;;;;;;11.48;6.97;;;3.20;99.90;;;4.06;71.89;101309.00;5024458;28;20022;-85
2021/03/19 07:34:59;;;;;;;10.13;6.88;;;3.30;99.90;;;4.44;70.70;101322.78;5007520;28;20038;-83
2021/03/19 07:38:11;;;;;;;11.82;8.07;;;3.40;99.90;;;4.89;70.57;101326.75;5007854;28;20018;-83
2021/03/19 07:41:27;;;;;;;9.35;6.40;;;3.60;99.90;;;5.30;69.51;101336.75;5010721;28;20023;-83
2021/03/19 07:44:41;;;;;;;16.55;7.18;;;4.00;99.90;;;5.64;68.59;101336.38;5011951;28;20027;-84
2021/03/19 07:47:52;;;;;;;10.00;6.03;;;4.30;99.90;;;5.72;67.25;101343.13;5010882;28;20026;-84
2021/03/19 07:51:05;;;;;;;13.93;6.38;;;4.60;99.90;;;5.68;65.79;101347.66;5010175;28;20030;-82
2021/03/19 07:53:55;;;;;;;10.27;5.82;;;4.60;99.90;;;5.65;66.86;101349.09;5009499;28;20014;-84
2021/03/19 07:57:10;;;;;;;8.25;5.90;;;4.60;99.90;;;6.05;66.66;101357.72;5006290;28;20120;-81
2021/03/19 08:00:11;;;;;;;8.52;6.32;;;4.80;99.90;;;5.89;66.86;101365.53;4973081;28;20126;-80
2021/03/19 08:03:05;;;;;;;14.55;6.47;;;4.90;99.90;;;5.99;65.92;101367.28;5002266;28;20039;-84
2021/03/19 08:05:52;;;;;;;10.18;5.80;;;5.00;99.90;;;5.82;67.38;101356.78;5013405;28;20030;-82
2021/03/19 08:08:49;;;;;;;10.88;5.57;;;5.00;99.90;;;6.07;65.25;101361.81;5008399;28;20030;-82
2021/03/19 08:11:51;;;;;;;8.13;5.70;;;5.20;99.90;;;6.26;64.68;101370.81;5002705;28;20037;-85
2021/03/19 08:14:58;;;;;;;10.75;5.97;;;5.40;99.90;;;6.13;64.04;101376.41;5017891;28;20516;-83
2021/03/19 08:17:59;;;;;;;8.48;6.22;;;5.40;99.90;;;5.92;64.19;101380.72;5012361;28;20466;-84
2021/03/19 08:21:01;;;;;;;10.90;6.00;;;5.30;99.90;;;6.64;63.46;101381.63;5018096;28;20133;-84
2021/03/19 08:24:10;;;;;;;8.45;5.57;;;5.60;99.90;;;6.69;62.22;101389.81;5002222;28;20048;-84
2021/03/19 08:26:59;;;;;;;8.20;5.70;;;5.70;99.90;;;6.73;62.04;101394.44;5018211;28;20065;-84
2021/03/19 08:29:43;;;;;;;11.50;6.13;;;5.80;99.90;;;6.88;62.29;101394.03;5001751;28;20061;-85
2021/03/19 08:32:42;;;;;;;10.38;5.88;;;5.70;99.90;;;6.66;62.62;101404.31;5002140;28;20116;-83
2021/03/19 08:36:16;;;;;;;9.68;5.47;;;5.80;99.90;;;6.71;62.61;101399.44;5002211;28;20039;-86
2021/03/19 08:39:00;;;;;;;9.45;6.07;;;6.00;99.90;;;6.55;62.87;101405.69;4962023;29;20491;-84
2021/03/19 08:41:49;;;;;;;14.98;6.22;;;5.90;99.90;;;7.15;61.75;101407.00;4946752;29;20038;-85
2021/03/19 08:44:23;;;;;;;8.00;4.70;;;6.30;99.90;;;7.34;60.63;101406.78;5013490;28;20076;-86
2021/03/19 08:47:28;;;;;;;7.45;4.53;;;6.50;99.90;;;7.89;59.75;101408.03;5009182;28;20035;-83
2021/03/19 08:50:38;;;;;;;7.95;5.60;;;6.70;99.90;;;8.25;58.23;101396.63;5020200;28;20030;-83
2021/03/19 08:53:21;;;;;;;7.63;5.10;;;7.00;99.90;;;8.07;57.75;101406.09;4999779;28;20046;-83
2021/03/19 08:56:06;;;;;;;9.25;4.45;;;7.00;99.90;;;7.99;56.80;101414.44;5019002;28;20041;-84
2021/03/19 08:58:31;;;;;;;8.75;4.95;;;7.00;99.90;;;7.69;57.50;101403.03;5002546;28;20049;-83
2021/03/19 09:01:07;;;;;;;6.80;4.28;;;6.70;99.90;;;7.73;58.24;101411.56;5002931;28;20026;-84
2021/03/19 09:03:42;;;;;;;9.77;4.32;;;6.80;99.90;;;7.95;56.67;101412.28;5002765;28;20056;-82
2021/03/19 09:06:18;;;;;;;10.55;4.90;;;6.80;99.90;;;8.07;57.40;101414.44;5004536;28;20061;-82
2021/03/19 09:09:06;;;;;;;5.93;3.63;;;6.80;99.90;;;8.37;56.96;101415.53;5003101;28;20030;-83
2021/03/19 09:11:40;;;;;;;6.50;4.10;;;7.00;99.90;;;8.76;53.68;101414.59;5002131;28;20030;-85
2021/03/19 09:14:06;;;;;;;5.78;3.20;;;7.40;99.90;;;8.83;53.98;101406.56;5003966;28;20166;-84
2021/03/19 09:16:58;;;;;;;6.88;4.22;;;7.50;99.90;;;8.74;53.05;101414.91;5002394;28;20038;-83
2021/03/19 09:19:34;;;;;;;4.15;2.75;;;7.60;99.90;;;8.39;53.97;101407.66;5017481;28;20026;-83
2021/03/19 09:22:34;;;;;;;4.68;3.13;;;7.40;99.90;;;8.50;53.95;101419.31;5005276;28;20093;-83
2021/03/19 09:25:13;;;;;;;4.30;2.95;;;7.40;99.90;;;8.54;52.45;101417.53;5004255;28;20442;-83
2021/03/19 09:28:11;;;;;;;5.25;2.55;;;7.60;99.90;;;8.48;53.71;101419.63;5004015;28;20026;-82
2021/03/19 09:31:27;;;;;;;3.72;2.80;;;7.50;99.90;;;9.31;51.46;101431.44;5003666;28;20081;-82
2021/03/19 09:34:04;;;;;;;6.50;2.65;;;7.80;99.90;;;9.68;50.54;101425.09;4996768;28;20035;-82
2021/03/19 09:37:00;;;;;;;4.18;2.55;;;8.30;99.90;;;10.07;49.87;101433.16;4998708;28;20038;-80
2021/03/19 09:40:08;;;;;;;4.28;2.60;;;8.60;99.40;;;9.71;50.61;101435.59;5010944;28;20026;-81
2021/03/19 09:42:49;;;;;;;6.57;2.40;;;8.70;97.80;;;9.71;49.91;101434.75;5009196;28;20030;-84
2021/03/19 09:45:24;;;;;;;5.93;3.35;;;8.80;94.30;;;9.82;49.43;101448.03;5024241;28;20057;-85
2021/03/19 09:48:13;;;;;;;5.57;2.45;;;8.90;93.70;;;9.74;49.98;101439.69;5006809;28;20026;-83
2021/03/19 09:50:58;;;;;;;3.92;2.20;;;8.90;93.80;;;10.27;48.35;101447.53;5023497;28;20034;-82
2021/03/19 09:53:38;;;;;;;3.72;2.22;;;9.00;93.00;;;10.11;48.79;101440.84;5006313;28;20363;-84
2021/03/19 09:56:29;;;;;;;4.95;2.50;;;8.90;93.10;;;10.02;47.97;101446.44;5006847;28;20455;-84
2021/03/19 09:59:06;;;;;;;4.07;2.10;;;9.00;91.10;;;9.85;47.02;101440.97;4991520;28;20030;-84
2021/03/19 10:01:45;;;;;;;2.63;2.00;;;8.90;87.50;;;9.40;47.50;101451.75;5005678;28;20063;-84
2021/03/19 10:04:38;;;;;;;4.88;2.45;;;8.50;87.40;;;9.38;49.02;101459.63;5011123;28;20030;-84
2021/03/19 10:07:25;;;;;;;3.85;2.42;;;8.40;90.50;;;9.49;47.78;101450.59;5009308;28;20030;-84
2021/03/19 10:09:57;;;;;;;3.97;1.85;;;8.50;89.60;;;9.30;48.98;101454.88;5024219;28;20076;-83
2021/03/19 10:12:33;;;;;;;2.85;1.90;;;8.20;91.50;;;8.69;49.30;101458.81;5024551;28;20053;-83
2021/03/19 10:15:24;;;;;;;3.35;2.00;;;7.90;90.90;;;8.16;49.59;101453.41;5024660;28;20038;-83
2021/03/19 10:17:59;;;;;;;4.70;1.70;;;7.60;90.50;;;8.40;50.18;101463.03;5026917;28;20030;-86
2021/03/19 10:20:41;;;;;;;3.13;1.65;;;7.50;93.00;;;8.52;49.75;101451.25;5026766;28;20026;-84
2021/03/19 10:23:23;;;;;;;1.50;1.20;;;7.50;93.20;;;8.72;49.50;101447.03;5023714;28;20485;-84
2021/03/19 10:25:51;;;;;;;2.78;1.67;;;7.50;93.60;;;8.47;48.76;101451.44;5006258;28;20040;-85
2021/03/19 10:28:17;;;;;;;2.15;1.77;;;7.50;91.00;;;8.63;49.24;101454.56;5022658;28;20030;-85
2021/03/19 10:30:55;;;;;;;4.05;1.60;;;7.60;92.90;;;8.79;48.92;101455.72;5006723;28;20041;-87
2021/03/19 10:33:43;;;;;;;2.67;1.58;;;7.80;91.90;;;8.92;49.87;101457.53;5024217;28;20082;-86
2021/03/19 10:36:49;;;;;;;2.85;1.58;;;7.80;94.20;;;8.67;48.78;101456.34;5023324;28;20035;-84
2021/03/19 10:39:32;;;;;;;3.57;1.27;;;7.80;90.70;;;9.54;47.28;101455.16;4985879;28;20038;-84
2021/03/19 10:42:38;;;;;;;2.28;1.60;;;8.40;89.40;;;9.02;47.27;101459.19;5021609;28;20352;-84
2021/03/19 10:45:29;;;;;;;5.70;1.27;;;8.10;85.30;;;9.22;47.07;101456.53;5022658;28;20041;-83
2021/03/19 10:48:45;;;;;;;1.92;1.60;;;8.30;83.90;;;9.05;46.48;101455.72;5007402;28;20073;-84
2021/03/19 10:51:33;;;;;;;2.47;1.10;;;8.20;81.70;;;9.05;47.06;101459.34;4966680;29;20186;-84
2021/03/19 10:54:16;;;;;;;3.63;1.33;;;8.00;85.10;;;9.72;46.67;101448.41;5005010;28;20054;-86
2021/03/19 10:57:11;;;;;;;1.88;1.13;;;8.50;83.90;;;9.58;45.16;101466.47;5021170;28;20023;-84
2021/03/19 10:59:40;;;;;;;2.33;1.10;;;8.60;78.80;;;10.52;45.21;101466.94;5007152;28;20081;-83
2021/03/19 11:02:12;;;;;;;4.47;1.75;;;9.20;81.10;;;10.58;44.39;101470.34;5033231;28;20037;-83
2021/03/19 11:04:42;;;;;;;5.38;1.20;;;9.30;77.80;;;11.12;44.02;101468.44;5006908;28;20058;-84
2021/03/19 11:07:27;;;;;;;2.25;1.30;;;9.80;78.10;;;11.40;42.56;101471.47;5007386;28;20089;-84
2021/03/19 11:10:21;;;;;;;3.95;1.05;;;10.10;74.20;;;11.80;39.95;101468.94;5006174;28;20061;-83
2021/03/19 11:12:57;;;;;;;2.22;0.80;;;10.60;68.40;;;12.09;39.77;101480.78;5005482;28;20030;-83
2021/03/19 11:15:29;;;;;;;2.30;1.13;;;10.90;67.60;;;11.66;39.29;101466.44;5004899;28;20046;-82
2021/03/19 11:18:42;;;;;;;1.65;1.10;;;10.60;64.40;;;11.40;41.09;101463.06;5005589;28;20030;-83
2021/03/19 11:21:09;;;;;;;1.98;1.00;;;10.40;68.60;;;11.05;41.54;101477.38;5006227;28;20026;-82
2021/03/19 11:24:01;;;;;;;2.88;1.13;;;10.10;68.20;;;11.35;41.29;101471.69;5006218;28;20031;-83